sensor_id;sensor_type;location;lat;lon;timestamp;temperature;humidity
21216;DHT22;10765;50.954;5.322;2023-02-28T00:01:20;-0.20;1.00
21216;DHT22;10765;50.954;5.322;2023-02-28T00:03:48;-0.30;1.00
21216;DHT22;10765;50.954;5.322;2023-02-28T00:06:16;-0.40;1.00
21216;DHT22;10765;50.954;5.322;2023-02-28T00:08:43;-0.40;1.00
21216;DHT22;10765;50.954;5.322;2023-02-28T00:11:12;-0.40;1.00
21216;DHT22;10765;50.954;5.322;2023-02-28T00:13:42;-0.40;1.00
21216;DHT22;10765;50.954;5.322;2023-02-28T00:16:13;-0.40;1.00
21216;DHT22;10765;50.954;5.322;2023-02-28T00:18:40;-0.40;1.00
21216;DHT22;10765;50.954;5.322;2023-02-28T00:21:09;-0.50;1.00
21216;DHT22;10765;50.954;5.322;2023-02-28T00:23:36;-0.50;1.00
21216;DHT22;10765;50.954;5.322;2023-02-28T00:26:03;-0.50;1.00
21216;DHT22;10765;50.954;5.322;2023-02-28T00:28:31;-0.50;1.00
21216;DHT22;10765;50.954;5.322;2023-02-28T00:30:58;-0.50;1.00
21216;DHT22;10765;50.954;5.322;2023-02-28T00:33:25;-0.50;1.00
21216;DHT22;10765;50.954;5.322;2023-02-28T00:36:00;-0.50;1.00
21216;DHT22;10765;50.954;5.322;2023-02-28T00:38:28;-0.50;1.00
21216;DHT22;10765;50.954;5.322;2023-02-28T00:40:55;-0.50;1.00
21216;DHT22;10765;50.954;5.322;2023-02-28T00:43:22;-0.50;1.00
21216;DHT22;10765;50.954;5.322;2023-02-28T00:45:49;-0.60;1.00
21216;DHT22;10765;50.954;5.322;2023-02-28T00:48:16;-0.60;1.00
21216;DHT22;10765;50.954;5.322;2023-02-28T00:50:43;-0.60;1.00
21216;DHT22;10765;50.954;5.322;2023-02-28T00:53:09;-0.60;1.00
21216;DHT22;10765;50.954;5.322;2023-02-28T00:55:38;-0.60;1.00
21216;DHT22;10765;50.954;5.322;2023-02-28T00:58:05;-0.60;1.00
21216;DHT22;10765;50.954;5.322;2023-02-28T01:00:31;-0.60;1.00
21216;DHT22;10765;50.954;5.322;2023-02-28T01:02:58;-0.60;1.00
21216;DHT22;10765;50.954;5.322;2023-02-28T01:05:25;-0.70;1.00
21216;DHT22;10765;50.954;5.322;2023-02-28T01:07:52;-0.70;1.00
21216;DHT22;10765;50.954;5.322;2023-02-28T01:10:19;-0.70;1.00
21216;DHT22;10765;50.954;5.322;2023-02-28T01:12:48;-0.70;1.00
21216;DHT22;10765;50.954;5.322;2023-02-28T01:15:15;-0.70;1.00
21216;DHT22;10765;50.954;5.322;2023-02-28T01:17:42;-0.80;1.00
21216;DHT22;10765;50.954;5.322;2023-02-28T01:20:10;-0.80;1.00
21216;DHT22;10765;50.954;5.322;2023-02-28T01:22:37;-0.90;1.00
21216;DHT22;10765;50.954;5.322;2023-02-28T01:25:04;-0.80;1.00
21216;DHT22;10765;50.954;5.322;2023-02-28T01:27:31;-0.90;1.00
21216;DHT22;10765;50.954;5.322;2023-02-28T01:30:01;-0.90;1.00
21216;DHT22;10765;50.954;5.322;2023-02-28T01:32:28;-1.00;1.00
21216;DHT22;10765;50.954;5.322;2023-02-28T01:34:55;-1.10;1.00
21216;DHT22;10765;50.954;5.322;2023-02-28T01:37:22;-1.20;1.00
21216;DHT22;10765;50.954;5.322;2023-02-28T01:39:48;-1.30;1.00
21216;DHT22;10765;50.954;5.322;2023-02-28T01:42:15;-1.30;99.90
21216;DHT22;10765;50.954;5.322;2023-02-28T01:44:59;-1.30;99.90
21216;DHT22;10765;50.954;5.322;2023-02-28T01:47:30;-1.30;99.90
21216;DHT22;10765;50.954;5.322;2023-02-28T01:49:59;-1.40;99.90
21216;DHT22;10765;50.954;5.322;2023-02-28T01:52:28;-1.30;99.90
21216;DHT22;10765;50.954;5.322;2023-02-28T01:54:56;-1.30;99.90
21216;DHT22;10765;50.954;5.322;2023-02-28T01:57:28;-1.30;99.90
21216;DHT22;10765;50.954;5.322;2023-02-28T01:59:59;-1.30;44.00
21216;DHT22;10765;50.954;5.322;2023-02-28T02:02:31;-1.40;96.80
21216;DHT22;10765;50.954;5.322;2023-02-28T02:05:00;-1.40;99.90
21216;DHT22;10765;50.954;5.322;2023-02-28T02:07:31;-1.40;99.90
21216;DHT22;10765;50.954;5.322;2023-02-28T02:10:01;-1.30;99.90
21216;DHT22;10765;50.954;5.322;2023-02-28T02:12:43;-1.40;99.90
21216;DHT22;10765;50.954;5.322;2023-02-28T02:15:16;-1.40;99.90
21216;DHT22;10765;50.954;5.322;2023-02-28T02:17:50;-1.30;99.90
21216;DHT22;10765;50.954;5.322;2023-02-28T02:21:01;-1.30;99.90
21216;DHT22;10765;50.954;5.322;2023-02-28T02:24:03;-1.30;39.10
21216;DHT22;10765;50.954;5.322;2023-02-28T02:27:03;-1.30;1.00
21216;DHT22;10765;50.954;5.322;2023-02-28T02:33:20;-1.30;43.00
21216;DHT22;10765;50.954;5.322;2023-02-28T02:35:56;-1.30;55.00
21216;DHT22;10765;50.954;5.322;2023-02-28T02:38:32;-1.30;20.50
21216;DHT22;10765;50.954;5.322;2023-02-28T02:41:08;-1.30;1.00
21216;DHT22;10765;50.954;5.322;2023-02-28T02:43:38;-1.30;33.00
21216;DHT22;10765;50.954;5.322;2023-02-28T02:46:10;-1.30;1.00
21216;DHT22;10765;50.954;5.322;2023-02-28T02:48:41;-1.30;1.00
21216;DHT22;10765;50.954;5.322;2023-02-28T02:51:13;-1.30;1.00
21216;DHT22;10765;50.954;5.322;2023-02-28T02:53:44;-1.30;1.00
21216;DHT22;10765;50.954;5.322;2023-02-28T02:56:13;-1.40;1.00
21216;DHT22;10765;50.954;5.322;2023-02-28T02:58:42;-1.50;1.00
21216;DHT22;10765;50.954;5.322;2023-02-28T03:01:14;-1.50;19.00
21216;DHT22;10765;50.954;5.322;2023-02-28T03:03:41;-1.50;89.70
21216;DHT22;10765;50.954;5.322;2023-02-28T03:06:08;-1.50;91.20
21216;DHT22;10765;50.954;5.322;2023-02-28T03:08:38;-1.50;1.00
21216;DHT22;10765;50.954;5.322;2023-02-28T03:11:07;-1.50;43.00
21216;DHT22;10765;50.954;5.322;2023-02-28T03:13:54;-1.60;48.00
21216;DHT22;10765;50.954;5.322;2023-02-28T03:16:49;-1.50;1.00
21216;DHT22;10765;50.954;5.322;2023-02-28T03:19:31;-1.50;16.30
21216;DHT22;10765;50.954;5.322;2023-02-28T03:22:12;-1.60;99.90
21216;DHT22;10765;50.954;5.322;2023-02-28T03:24:45;-1.70;99.90
21216;DHT22;10765;50.954;5.322;2023-02-28T03:27:20;-1.70;99.90
21216;DHT22;10765;50.954;5.322;2023-02-28T03:29:51;-1.70;99.90
21216;DHT22;10765;50.954;5.322;2023-02-28T03:32:26;-1.60;99.90
21216;DHT22;10765;50.954;5.322;2023-02-28T03:34:57;-1.70;99.90
21216;DHT22;10765;50.954;5.322;2023-02-28T03:37:26;-1.70;99.90
21216;DHT22;10765;50.954;5.322;2023-02-28T03:40:01;-1.70;99.90
21216;DHT22;10765;50.954;5.322;2023-02-28T03:42:35;-1.60;99.90
21216;DHT22;10765;50.954;5.322;2023-02-28T03:45:05;-1.50;99.90
21216;DHT22;10765;50.954;5.322;2023-02-28T03:47:38;-1.40;99.90
21216;DHT22;10765;50.954;5.322;2023-02-28T03:50:09;-1.20;99.90
21216;DHT22;10765;50.954;5.322;2023-02-28T03:52:40;-1.10;99.90
21216;DHT22;10765;50.954;5.322;2023-02-28T03:55:13;-1.20;99.90
21216;DHT22;10765;50.954;5.322;2023-02-28T03:57:49;-1.10;99.90
21216;DHT22;10765;50.954;5.322;2023-02-28T04:00:20;-1.10;99.90
21216;DHT22;10765;50.954;5.322;2023-02-28T04:02:48;-1.10;89.00
21216;DHT22;10765;50.954;5.322;2023-02-28T04:05:18;-1.30;99.90
21216;DHT22;10765;50.954;5.322;2023-02-28T04:07:45;-1.30;99.90
21216;DHT22;10765;50.954;5.322;2023-02-28T04:10:15;-1.30;99.90
21216;DHT22;10765;50.954;5.322;2023-02-28T04:12:42;-1.30;99.90
21216;DHT22;10765;50.954;5.322;2023-02-28T04:15:09;-1.40;99.90
21216;DHT22;10765;50.954;5.322;2023-02-28T04:17:37;-1.50;99.90
21216;DHT22;10765;50.954;5.322;2023-02-28T04:20:04;-1.50;99.90
21216;DHT22;10765;50.954;5.322;2023-02-28T04:22:35;-1.50;99.90
21216;DHT22;10765;50.954;5.322;2023-02-28T04:25:02;-1.60;99.90
21216;DHT22;10765;50.954;5.322;2023-02-28T04:27:30;-1.60;99.90
21216;DHT22;10765;50.954;5.322;2023-02-28T04:29:57;-1.60;1.00
21216;DHT22;10765;50.954;5.322;2023-02-28T04:32:24;-1.60;1.00
21216;DHT22;10765;50.954;5.322;2023-02-28T04:34:51;-1.50;99.90
21216;DHT22;10765;50.954;5.322;2023-02-28T04:37:18;-1.60;99.90
21216;DHT22;10765;50.954;5.322;2023-02-28T04:39:45;-1.60;99.90
21216;DHT22;10765;50.954;5.322;2023-02-28T04:42:12;-1.60;99.90
21216;DHT22;10765;50.954;5.322;2023-02-28T04:44:41;-1.70;1.00
21216;DHT22;10765;50.954;5.322;2023-02-28T04:47:08;-1.70;1.00
21216;DHT22;10765;50.954;5.322;2023-02-28T04:49:35;-1.60;1.00
21216;DHT22;10765;50.954;5.322;2023-02-28T04:52:02;-1.60;99.90
21216;DHT22;10765;50.954;5.322;2023-02-28T04:54:29;-1.60;99.90
21216;DHT22;10765;50.954;5.322;2023-02-28T04:56:56;-1.60;99.90
21216;DHT22;10765;50.954;5.322;2023-02-28T04:59:23;-1.60;99.90
21216;DHT22;10765;50.954;5.322;2023-02-28T05:01:51;-1.70;99.90
21216;DHT22;10765;50.954;5.322;2023-02-28T05:04:18;-1.80;99.90
21216;DHT22;10765;50.954;5.322;2023-02-28T05:06:45;-2.00;1.00
21216;DHT22;10765;50.954;5.322;2023-02-28T05:09:12;-2.00;1.00
21216;DHT22;10765;50.954;5.322;2023-02-28T05:11:39;-2.10;1.00
21216;DHT22;10765;50.954;5.322;2023-02-28T05:14:10;-2.10;1.00
21216;DHT22;10765;50.954;5.322;2023-02-28T05:16:37;-2.20;1.00
21216;DHT22;10765;50.954;5.322;2023-02-28T05:19:06;-2.20;78.60
21216;DHT22;10765;50.954;5.322;2023-02-28T05:21:34;-2.20;99.90
21216;DHT22;10765;50.954;5.322;2023-02-28T05:24:03;-2.10;99.90
21216;DHT22;10765;50.954;5.322;2023-02-28T05:26:34;-2.30;99.90
21216;DHT22;10765;50.954;5.322;2023-02-28T05:29:01;-2.40;99.90
21216;DHT22;10765;50.954;5.322;2023-02-28T05:31:28;-2.40;1.00
21216;DHT22;10765;50.954;5.322;2023-02-28T05:33:55;-2.50;1.00
21216;DHT22;10765;50.954;5.322;2023-02-28T05:36:23;-2.50;1.00
21216;DHT22;10765;50.954;5.322;2023-02-28T05:38:51;-2.50;95.80
21216;DHT22;10765;50.954;5.322;2023-02-28T05:41:19;-2.50;91.10
21216;DHT22;10765;50.954;5.322;2023-02-28T05:43:46;-2.50;60.70
21216;DHT22;10765;50.954;5.322;2023-02-28T05:46:14;-2.50;99.90
21216;DHT22;10765;50.954;5.322;2023-02-28T05:48:41;-2.50;1.00
21216;DHT22;10765;50.954;5.322;2023-02-28T05:51:09;-2.50;99.90
21216;DHT22;10765;50.954;5.322;2023-02-28T05:53:37;-2.60;99.90
21216;DHT22;10765;50.954;5.322;2023-02-28T05:56:04;-2.50;99.90
21216;DHT22;10765;50.954;5.322;2023-02-28T05:58:31;-2.50;99.90
21216;DHT22;10765;50.954;5.322;2023-02-28T06:01:18;-2.50;1.00
21216;DHT22;10765;50.954;5.322;2023-02-28T06:03:45;-2.50;99.90
21216;DHT22;10765;50.954;5.322;2023-02-28T06:06:12;-2.50;99.90
21216;DHT22;10765;50.954;5.322;2023-02-28T06:08:40;-2.50;99.90
21216;DHT22;10765;50.954;5.322;2023-02-28T06:11:08;-2.50;99.90
21216;DHT22;10765;50.954;5.322;2023-02-28T06:13:35;-2.60;36.70
21216;DHT22;10765;50.954;5.322;2023-02-28T06:16:03;-2.40;99.90
21216;DHT22;10765;50.954;5.322;2023-02-28T06:18:30;-2.40;19.10
21216;DHT22;10765;50.954;5.322;2023-02-28T06:20:57;-2.40;1.00
21216;DHT22;10765;50.954;5.322;2023-02-28T06:23:24;-2.40;1.00
21216;DHT22;10765;50.954;5.322;2023-02-28T06:25:53;-2.40;1.00
21216;DHT22;10765;50.954;5.322;2023-02-28T06:28:23;-2.50;1.00
21216;DHT22;10765;50.954;5.322;2023-02-28T06:30:50;-2.50;99.90
21216;DHT22;10765;50.954;5.322;2023-02-28T06:33:17;-2.50;1.00
21216;DHT22;10765;50.954;5.322;2023-02-28T06:35:44;-2.50;1.00
21216;DHT22;10765;50.954;5.322;2023-02-28T06:38:11;-2.50;1.00
21216;DHT22;10765;50.954;5.322;2023-02-28T06:40:38;-2.40;1.00
21216;DHT22;10765;50.954;5.322;2023-02-28T06:43:06;-2.40;1.00
21216;DHT22;10765;50.954;5.322;2023-02-28T06:45:33;-2.30;1.00
21216;DHT22;10765;50.954;5.322;2023-02-28T06:48:00;-2.20;1.00
21216;DHT22;10765;50.954;5.322;2023-02-28T06:50:27;-2.00;93.70
21216;DHT22;10765;50.954;5.322;2023-02-28T06:52:55;-1.80;13.60
21216;DHT22;10765;50.954;5.322;2023-02-28T06:55:22;-1.50;1.00
21216;DHT22;10765;50.954;5.322;2023-02-28T06:57:49;-1.00;99.90
21216;DHT22;10765;50.954;5.322;2023-02-28T07:00:18;-0.30;99.90
21216;DHT22;10765;50.954;5.322;2023-02-28T07:02:45;0.10;1.00
21216;DHT22;10765;50.954;5.322;2023-02-28T07:05:12;0.70;99.90
21216;DHT22;10765;50.954;5.322;2023-02-28T07:07:39;1.30;99.90
21216;DHT22;10765;50.954;5.322;2023-02-28T07:10:10;1.80;99.90
21216;DHT22;10765;50.954;5.322;2023-02-28T07:12:38;2.70;99.90
21216;DHT22;10765;50.954;5.322;2023-02-28T07:15:06;3.00;99.90
21216;DHT22;10765;50.954;5.322;2023-02-28T07:17:35;2.90;99.90
21216;DHT22;10765;50.954;5.322;2023-02-28T07:20:02;2.90;99.90
21216;DHT22;10765;50.954;5.322;2023-02-28T07:22:30;3.20;99.90
21216;DHT22;10765;50.954;5.322;2023-02-28T07:24:57;3.60;70.70
21216;DHT22;10765;50.954;5.322;2023-02-28T07:27:23;4.00;54.20
21216;DHT22;10765;50.954;5.322;2023-02-28T07:29:51;4.70;26.90
21216;DHT22;10765;50.954;5.322;2023-02-28T07:32:19;5.40;2.70
21216;DHT22;10765;50.954;5.322;2023-02-28T07:34:47;6.00;1.00
21216;DHT22;10765;50.954;5.322;2023-02-28T07:37:14;6.20;1.00
21216;DHT22;10765;50.954;5.322;2023-02-28T07:39:41;6.50;1.00
21216;DHT22;10765;50.954;5.322;2023-02-28T07:42:08;6.70;1.00
21216;DHT22;10765;50.954;5.322;2023-02-28T07:44:37;7.50;1.00
21216;DHT22;10765;50.954;5.322;2023-02-28T07:47:07;7.70;1.00
21216;DHT22;10765;50.954;5.322;2023-02-28T07:49:34;7.60;1.00
21216;DHT22;10765;50.954;5.322;2023-02-28T07:52:03;8.50;1.00
21216;DHT22;10765;50.954;5.322;2023-02-28T07:54:30;9.30;1.00
21216;DHT22;10765;50.954;5.322;2023-02-28T07:56:57;8.90;1.00
21216;DHT22;10765;50.954;5.322;2023-02-28T07:59:24;8.70;1.00
21216;DHT22;10765;50.954;5.322;2023-02-28T08:01:51;9.20;1.00
21216;DHT22;10765;50.954;5.322;2023-02-28T08:04:18;9.00;1.00
21216;DHT22;10765;50.954;5.322;2023-02-28T08:06:46;9.00;1.00
21216;DHT22;10765;50.954;5.322;2023-02-28T08:09:14;9.50;1.00
21216;DHT22;10765;50.954;5.322;2023-02-28T08:11:41;9.20;1.00
21216;DHT22;10765;50.954;5.322;2023-02-28T08:14:08;9.20;1.00
21216;DHT22;10765;50.954;5.322;2023-02-28T08:16:35;9.60;1.00
21216;DHT22;10765;50.954;5.322;2023-02-28T08:19:02;10.80;1.00
21216;DHT22;10765;50.954;5.322;2023-02-28T08:21:29;11.30;1.00
21216;DHT22;10765;50.954;5.322;2023-02-28T08:23:56;11.40;1.00
21216;DHT22;10765;50.954;5.322;2023-02-28T08:26:24;10.50;1.00
21216;DHT22;10765;50.954;5.322;2023-02-28T08:28:51;11.60;1.00
21216;DHT22;10765;50.954;5.322;2023-02-28T08:31:19;12.80;1.00
21216;DHT22;10765;50.954;5.322;2023-02-28T08:33:46;12.50;1.00
21216;DHT22;10765;50.954;5.322;2023-02-28T08:36:14;12.20;1.00
21216;DHT22;10765;50.954;5.322;2023-02-28T08:38:41;12.90;1.00
21216;DHT22;10765;50.954;5.322;2023-02-28T08:41:10;13.40;1.00
21216;DHT22;10765;50.954;5.322;2023-02-28T08:43:40;14.50;1.00
21216;DHT22;10765;50.954;5.322;2023-02-28T08:46:07;13.80;1.00
21216;DHT22;10765;50.954;5.322;2023-02-28T08:48:36;12.80;1.00
21216;DHT22;10765;50.954;5.322;2023-02-28T08:51:06;11.90;1.00
21216;DHT22;10765;50.954;5.322;2023-02-28T08:53:35;12.00;1.00
21216;DHT22;10765;50.954;5.322;2023-02-28T08:56:04;13.60;1.00
21216;DHT22;10765;50.954;5.322;2023-02-28T08:58:32;12.90;1.00
21216;DHT22;10765;50.954;5.322;2023-02-28T09:01:07;13.50;1.00
21216;DHT22;10765;50.954;5.322;2023-02-28T09:03:35;14.80;1.00
21216;DHT22;10765;50.954;5.322;2023-02-28T09:06:02;14.40;1.00
21216;DHT22;10765;50.954;5.322;2023-02-28T09:08:30;14.10;1.00
21216;DHT22;10765;50.954;5.322;2023-02-28T09:10:58;14.40;1.00
21216;DHT22;10765;50.954;5.322;2023-02-28T09:13:25;13.90;1.00
21216;DHT22;10765;50.954;5.322;2023-02-28T09:15:53;12.50;1.00
21216;DHT22;10765;50.954;5.322;2023-02-28T09:18:21;13.10;1.00
21216;DHT22;10765;50.954;5.322;2023-02-28T09:20:48;12.70;1.00
21216;DHT22;10765;50.954;5.322;2023-02-28T09:23:16;12.60;1.00
21216;DHT22;10765;50.954;5.322;2023-02-28T09:25:47;14.30;1.00
21216;DHT22;10765;50.954;5.322;2023-02-28T09:28:14;13.80;1.00
21216;DHT22;10765;50.954;5.322;2023-02-28T09:30:44;13.90;1.00
21216;DHT22;10765;50.954;5.322;2023-02-28T09:33:11;15.00;1.00
21216;DHT22;10765;50.954;5.322;2023-02-28T09:35:40;14.30;1.00
21216;DHT22;10765;50.954;5.322;2023-02-28T09:38:08;15.10;1.00
21216;DHT22;10765;50.954;5.322;2023-02-28T09:40:37;15.40;1.00
21216;DHT22;10765;50.954;5.322;2023-02-28T09:43:09;15.40;1.00
21216;DHT22;10765;50.954;5.322;2023-02-28T09:45:39;15.00;1.00
21216;DHT22;10765;50.954;5.322;2023-02-28T09:48:19;14.20;1.00
21216;DHT22;10765;50.954;5.322;2023-02-28T09:50:50;14.30;1.00
21216;DHT22;10765;50.954;5.322;2023-02-28T09:53:22;14.10;1.00
21216;DHT22;10765;50.954;5.322;2023-02-28T09:55:55;13.70;1.00
21216;DHT22;10765;50.954;5.322;2023-02-28T09:58:30;13.40;1.00
21216;DHT22;10765;50.954;5.322;2023-02-28T10:01:02;12.60;1.00
21216;DHT22;10765;50.954;5.322;2023-02-28T10:03:32;13.20;1.00
21216;DHT22;10765;50.954;5.322;2023-02-28T10:06:07;15.50;1.00
21216;DHT22;10765;50.954;5.322;2023-02-28T10:08:40;14.70;1.00
21216;DHT22;10765;50.954;5.322;2023-02-28T10:11:15;14.90;1.00
21216;DHT22;10765;50.954;5.322;2023-02-28T10:13:50;16.30;1.00
21216;DHT22;10765;50.954;5.322;2023-02-28T10:16:22;16.10;1.00
21216;DHT22;10765;50.954;5.322;2023-02-28T10:18:53;14.40;1.00
21216;DHT22;10765;50.954;5.322;2023-02-28T10:21:27;15.00;1.00
21216;DHT22;10765;50.954;5.322;2023-02-28T10:24:01;14.60;1.00
21216;DHT22;10765;50.954;5.322;2023-02-28T10:26:30;14.50;1.00
21216;DHT22;10765;50.954;5.322;2023-02-28T10:28:58;14.50;1.00
21216;DHT22;10765;50.954;5.322;2023-02-28T10:31:25;15.10;1.00
21216;DHT22;10765;50.954;5.322;2023-02-28T10:33:52;14.80;1.00
21216;DHT22;10765;50.954;5.322;2023-02-28T10:36:20;13.40;1.00
21216;DHT22;10765;50.954;5.322;2023-02-28T10:38:49;14.20;1.00
21216;DHT22;10765;50.954;5.322;2023-02-28T10:41:27;12.60;1.00
21216;DHT22;10765;50.954;5.322;2023-02-28T10:44:13;12.50;1.00
21216;DHT22;10765;50.954;5.322;2023-02-28T10:46:41;12.80;1.00
21216;DHT22;10765;50.954;5.322;2023-02-28T10:49:14;13.90;1.00
21216;DHT22;10765;50.954;5.322;2023-02-28T10:51:42;13.90;1.00
21216;DHT22;10765;50.954;5.322;2023-02-28T10:54:18;11.70;1.00
21216;DHT22;10765;50.954;5.322;2023-02-28T10:56:46;9.60;1.00
21216;DHT22;10765;50.954;5.322;2023-02-28T10:59:32;10.50;1.00
21216;DHT22;10765;50.954;5.322;2023-02-28T11:01:59;13.60;1.00
21216;DHT22;10765;50.954;5.322;2023-02-28T11:04:35;15.40;1.00
21216;DHT22;10765;50.954;5.322;2023-02-28T11:07:05;16.30;1.00
21216;DHT22;10765;50.954;5.322;2023-02-28T11:09:35;16.00;1.00
21216;DHT22;10765;50.954;5.322;2023-02-28T11:12:05;14.70;1.00
21216;DHT22;10765;50.954;5.322;2023-02-28T11:14:39;14.60;1.00
21216;DHT22;10765;50.954;5.322;2023-02-28T11:17:14;15.70;1.00
21216;DHT22;10765;50.954;5.322;2023-02-28T11:19:46;15.90;1.00
21216;DHT22;10765;50.954;5.322;2023-02-28T11:22:19;15.10;1.00
21216;DHT22;10765;50.954;5.322;2023-02-28T11:24:50;15.00;1.00
21216;DHT22;10765;50.954;5.322;2023-02-28T11:27:26;15.50;1.00
21216;DHT22;10765;50.954;5.322;2023-02-28T11:30:27;17.10;1.00
21216;DHT22;10765;50.954;5.322;2023-02-28T11:32:54;16.70;1.00
21216;DHT22;10765;50.954;5.322;2023-02-28T11:35:26;16.70;1.00
21216;DHT22;10765;50.954;5.322;2023-02-28T11:37:53;15.40;1.00
21216;DHT22;10765;50.954;5.322;2023-02-28T11:40:28;15.30;1.00
21216;DHT22;10765;50.954;5.322;2023-02-28T11:43:09;14.00;1.00
21216;DHT22;10765;50.954;5.322;2023-02-28T11:45:45;14.10;1.00
21216;DHT22;10765;50.954;5.322;2023-02-28T11:48:20;14.90;1.00
21216;DHT22;10765;50.954;5.322;2023-02-28T11:50:54;12.30;1.00
21216;DHT22;10765;50.954;5.322;2023-02-28T11:53:30;12.20;1.00
21216;DHT22;10765;50.954;5.322;2023-02-28T11:56:08;12.40;1.00
21216;DHT22;10765;50.954;5.322;2023-02-28T11:58:48;12.80;1.00
21216;DHT22;10765;50.954;5.322;2023-02-28T12:01:32;14.00;1.00
21216;DHT22;10765;50.954;5.322;2023-02-28T12:04:17;13.60;1.00
21216;DHT22;10765;50.954;5.322;2023-02-28T12:06:54;12.30;1.00
21216;DHT22;10765;50.954;5.322;2023-02-28T12:09:38;10.40;1.00
21216;DHT22;10765;50.954;5.322;2023-02-28T12:12:19;10.00;1.00
21216;DHT22;10765;50.954;5.322;2023-02-28T12:15:15;11.00;1.00
21216;DHT22;10765;50.954;5.322;2023-02-28T12:17:57;10.70;1.00
21216;DHT22;10765;50.954;5.322;2023-02-28T12:20:30;10.10;1.00
21216;DHT22;10765;50.954;5.322;2023-02-28T12:23:22;10.20;1.00
21216;DHT22;10765;50.954;5.322;2023-02-28T12:25:58;11.00;1.00
21216;DHT22;10765;50.954;5.322;2023-02-28T12:28:33;11.70;1.00
21216;DHT22;10765;50.954;5.322;2023-02-28T12:31:03;12.10;1.00
21216;DHT22;10765;50.954;5.322;2023-02-28T12:33:35;12.60;1.00
21216;DHT22;10765;50.954;5.322;2023-02-28T12:36:07;13.00;1.00
21216;DHT22;10765;50.954;5.322;2023-02-28T12:38:40;11.30;1.00
21216;DHT22;10765;50.954;5.322;2023-02-28T12:41:12;9.10;1.00
21216;DHT22;10765;50.954;5.322;2023-02-28T12:43:44;8.00;1.00
21216;DHT22;10765;50.954;5.322;2023-02-28T12:46:15;7.50;17.10
21216;DHT22;10765;50.954;5.322;2023-02-28T12:48:46;6.90;37.40
21216;DHT22;10765;50.954;5.322;2023-02-28T12:51:15;6.40;58.60
21216;DHT22;10765;50.954;5.322;2023-02-28T12:53:56;7.30;44.00
21216;DHT22;10765;50.954;5.322;2023-02-28T12:56:33;9.40;1.00
21216;DHT22;10765;50.954;5.322;2023-02-28T12:59:11;10.40;1.00
21216;DHT22;10765;50.954;5.322;2023-02-28T13:01:51;11.00;1.00
21216;DHT22;10765;50.954;5.322;2023-02-28T13:04:47;11.30;1.00
21216;DHT22;10765;50.954;5.322;2023-02-28T13:07:40;11.70;1.00
21216;DHT22;10765;50.954;5.322;2023-02-28T13:10:15;12.50;1.00
21216;DHT22;10765;50.954;5.322;2023-02-28T13:12:48;14.00;1.00
21216;DHT22;10765;50.954;5.322;2023-02-28T13:15:20;13.60;1.00
21216;DHT22;10765;50.954;5.322;2023-02-28T13:17:51;14.90;1.00
21216;DHT22;10765;50.954;5.322;2023-02-28T13:20:20;15.40;1.00
21216;DHT22;10765;50.954;5.322;2023-02-28T13:22:48;15.60;1.00
21216;DHT22;10765;50.954;5.322;2023-02-28T13:31:28;14.50;1.00
21216;DHT22;10765;50.954;5.322;2023-02-28T13:34:15;17.00;1.00
21216;DHT22;10765;50.954;5.322;2023-02-28T13:36:42;17.30;1.00
21216;DHT22;10765;50.954;5.322;2023-02-28T13:39:47;15.90;1.00
21216;DHT22;10765;50.954;5.322;2023-02-28T13:42:33;14.20;1.00
21216;DHT22;10765;50.954;5.322;2023-02-28T13:45:21;14.40;1.00
21216;DHT22;10765;50.954;5.322;2023-02-28T13:47:58;14.50;1.00
21216;DHT22;10765;50.954;5.322;2023-02-28T13:50:34;15.10;1.00
21216;DHT22;10765;50.954;5.322;2023-02-28T13:53:42;14.90;1.00
21216;DHT22;10765;50.954;5.322;2023-02-28T13:56:34;13.60;1.00
21216;DHT22;10765;50.954;5.322;2023-02-28T13:59:16;13.30;1.00
21216;DHT22;10765;50.954;5.322;2023-02-28T14:01:56;13.90;1.00
21216;DHT22;10765;50.954;5.322;2023-02-28T14:04:54;14.50;1.00
21216;DHT22;10765;50.954;5.322;2023-02-28T14:07:27;15.00;1.00
21216;DHT22;10765;50.954;5.322;2023-02-28T14:10:02;13.60;1.00
21216;DHT22;10765;50.954;5.322;2023-02-28T14:15:54;14.00;1.00
21216;DHT22;10765;50.954;5.322;2023-02-28T14:18:28;12.50;1.00
21216;DHT22;10765;50.954;5.322;2023-02-28T14:21:02;11.80;1.00
21216;DHT22;10765;50.954;5.322;2023-02-28T14:23:46;12.90;1.00
21216;DHT22;10765;50.954;5.322;2023-02-28T14:26:29;13.30;1.00
21216;DHT22;10765;50.954;5.322;2023-02-28T14:29:14;13.60;1.00
21216;DHT22;10765;50.954;5.322;2023-02-28T14:31:45;13.10;1.00
21216;DHT22;10765;50.954;5.322;2023-02-28T14:34:26;13.00;1.00
21216;DHT22;10765;50.954;5.322;2023-02-28T14:36:58;13.50;1.00
21216;DHT22;10765;50.954;5.322;2023-02-28T14:39:27;11.80;1.00
21216;DHT22;10765;50.954;5.322;2023-02-28T14:41:57;13.20;1.00
21216;DHT22;10765;50.954;5.322;2023-02-28T14:44:28;12.60;1.00
21216;DHT22;10765;50.954;5.322;2023-02-28T14:46:57;12.10;1.00
21216;DHT22;10765;50.954;5.322;2023-02-28T14:49:31;13.10;1.00
21216;DHT22;10765;50.954;5.322;2023-02-28T14:52:06;11.90;1.00
21216;DHT22;10765;50.954;5.322;2023-02-28T14:54:35;10.80;1.00
21216;DHT22;10765;50.954;5.322;2023-02-28T14:57:03;7.90;29.90
21216;DHT22;10765;50.954;5.322;2023-02-28T14:59:32;6.50;93.20
21216;DHT22;10765;50.954;5.322;2023-02-28T15:02:21;6.00;99.90
21216;DHT22;10765;50.954;5.322;2023-02-28T15:04:55;5.50;99.90
21216;DHT22;10765;50.954;5.322;2023-02-28T15:07:24;5.40;99.90
21216;DHT22;10765;50.954;5.322;2023-02-28T15:10:14;5.50;99.90
21216;DHT22;10765;50.954;5.322;2023-02-28T15:12:48;5.50;99.90
21216;DHT22;10765;50.954;5.322;2023-02-28T15:15:16;5.30;99.90
21216;DHT22;10765;50.954;5.322;2023-02-28T15:17:46;5.20;99.90
21216;DHT22;10765;50.954;5.322;2023-02-28T15:20:16;5.30;99.90
21216;DHT22;10765;50.954;5.322;2023-02-28T15:22:47;5.30;99.90
21216;DHT22;10765;50.954;5.322;2023-02-28T15:25:19;5.20;99.90
21216;DHT22;10765;50.954;5.322;2023-02-28T15:27:49;5.20;99.90
21216;DHT22;10765;50.954;5.322;2023-02-28T15:30:19;5.20;99.90
21216;DHT22;10765;50.954;5.322;2023-02-28T15:33:04;5.10;99.90
21216;DHT22;10765;50.954;5.322;2023-02-28T15:35:32;5.10;99.90
21216;DHT22;10765;50.954;5.322;2023-02-28T15:38:03;5.10;99.90
21216;DHT22;10765;50.954;5.322;2023-02-28T15:40:36;5.20;99.90
21216;DHT22;10765;50.954;5.322;2023-02-28T15:43:06;5.20;99.90
21216;DHT22;10765;50.954;5.322;2023-02-28T15:45:39;5.10;99.90
21216;DHT22;10765;50.954;5.322;2023-02-28T15:48:16;5.00;99.90
21216;DHT22;10765;50.954;5.322;2023-02-28T15:50:44;5.00;99.90
21216;DHT22;10765;50.954;5.322;2023-02-28T15:53:17;5.10;99.90
21216;DHT22;10765;50.954;5.322;2023-02-28T15:55:55;5.00;99.90
21216;DHT22;10765;50.954;5.322;2023-02-28T15:58:24;5.00;99.90
21216;DHT22;10765;50.954;5.322;2023-02-28T16:01:07;5.00;99.90
21216;DHT22;10765;50.954;5.322;2023-02-28T16:03:40;5.00;99.90
21216;DHT22;10765;50.954;5.322;2023-02-28T16:09:06;4.90;99.90
21216;DHT22;10765;50.954;5.322;2023-02-28T16:11:36;4.80;99.90
21216;DHT22;10765;50.954;5.322;2023-02-28T16:14:04;4.80;99.90
21216;DHT22;10765;50.954;5.322;2023-02-28T16:16:31;4.80;99.90
21216;DHT22;10765;50.954;5.322;2023-02-28T16:18:59;4.80;99.90
21216;DHT22;10765;50.954;5.322;2023-02-28T16:21:26;4.80;99.90
21216;DHT22;10765;50.954;5.322;2023-02-28T16:23:53;4.70;99.90
21216;DHT22;10765;50.954;5.322;2023-02-28T16:26:23;4.70;99.90